Time;durP1;ratioP1;P1;durP2;ratioP2;P2;SDS_P1;SDS_P2;PMS_P1;PMS_P2;Temp;Humidity;BMP_temperature;BMP_pressure;BME280_temperature;BME280_humidity;BME280_pressure;Samples;Min_cycle;Max_cycle;Signal;HPM_P1;HPM_P2
2021/12/10 00:00:28;;;;;;;8.17;7.97;;;2.30;99.90;;;;;;5066825;28;20231;-84
2021/12/10 00:02:57;;;;;;;8.83;8.63;;;2.30;99.90;;;;;;5066801;28;20246;-83
2021/12/10 00:05:37;;;;;;;8.63;8.43;;;2.30;99.90;;;;;;5066926;28;20239;-82
2021/12/10 00:08:06;;;;;;;8.73;8.53;;;2.30;99.90;;;;;;5068114;28;20227;-82
2021/12/10 00:10:38;;;;;;;8.87;8.67;;;2.30;99.90;;;;;;5066702;28;20231;-82
2021/12/10 00:13:16;;;;;;;8.50;8.30;;;2.40;99.90;;;;;;5066214;28;20231;-82
2021/12/10 00:15:45;;;;;;;8.87;8.67;;;2.40;99.90;;;;;;5065642;28;20226;-82
2021/12/10 00:18:19;;;;;;;8.80;8.60;;;2.50;99.90;;;;;;5064111;28;20281;-82
2021/12/10 00:20:50;;;;;;;8.40;8.20;;;2.50;99.90;;;;;;5065294;28;20297;-83
2021/12/10 00:23:20;;;;;;;8.70;8.50;;;2.50;99.90;;;;;;5066618;28;20229;-82
2021/12/10 00:25:53;;;;;;;8.40;8.20;;;2.50;99.90;;;;;;5065383;28;20231;-83
2021/12/10 00:28:25;;;;;;;8.30;8.10;;;2.50;99.90;;;;;;5065425;28;20609;-82
2021/12/10 00:31:04;;;;;;;8.50;8.30;;;2.50;99.90;;;;;;5065494;28;20227;-83
2021/12/10 00:33:39;;;;;;;8.50;8.30;;;2.50;99.90;;;;;;5065455;28;20231;-82
2021/12/10 00:36:09;;;;;;;8.47;8.27;;;2.50;99.90;;;;;;5065745;28;20238;-83
2021/12/10 00:38:37;;;;;;;8.30;8.10;;;2.40;99.90;;;;;;5066203;28;20219;-83
2021/12/10 00:41:07;;;;;;;8.43;8.23;;;2.40;99.90;;;;;;5065438;28;20231;-82
2021/12/10 00:43:35;;;;;;;8.70;8.50;;;2.30;99.90;;;;;;5065531;28;20709;-82
2021/12/10 00:46:04;;;;;;;8.70;8.50;;;2.30;99.90;;;;;;5065961;28;20223;-83
2021/12/10 00:48:32;;;;;;;9.03;8.73;;;2.30;99.90;;;;;;5068797;28;20254;-83
2021/12/10 00:51:02;;;;;;;8.60;8.40;;;2.30;99.90;;;;;;5054574;28;20239;-84
2021/12/10 00:53:31;;;;;;;8.50;8.30;;;2.30;99.90;;;;;;5065471;28;20246;-83
2021/12/10 00:56:15;;;;;;;8.80;8.60;;;2.30;99.90;;;;;;5227829;27;20555;-83
2021/12/10 00:58:43;;;;;;;9.10;8.80;;;2.30;99.90;;;;;;5207670;27;20230;-83
2021/12/10 01:01:17;;;;;;;8.70;8.50;;;2.30;99.90;;;;;;5207989;27;20295;-83
2021/12/10 01:03:50;;;;;;;8.70;8.50;;;2.20;99.90;;;;;;5204237;27;20222;-83
2021/12/10 01:06:20;;;;;;;8.80;8.60;;;2.30;99.90;;;;;;5186215;27;20242;-83
2021/12/10 01:08:57;;;;;;;8.50;8.30;;;2.30;99.90;;;;;;5186256;27;20222;-83
2021/12/10 01:11:31;;;;;;;8.60;8.40;;;2.30;99.90;;;;;;5186223;27;20226;-81
2021/12/10 01:14:11;;;;;;;8.70;8.50;;;2.30;99.90;;;;;;5185707;27;20223;-80
2021/12/10 01:25:11;;;;;;;8.73;8.53;;;2.30;99.90;;;;;;5140974;27;20258;-82
2021/12/10 01:27:43;;;;;;;8.53;8.33;;;2.30;99.90;;;;;;5185668;27;20226;-81
2021/12/10 01:30:19;;;;;;;8.70;8.50;;;2.30;99.90;;;;;;5185643;27;20248;-82
2021/12/10 01:32:50;;;;;;;8.70;8.50;;;2.30;99.90;;;;;;5185247;27;20237;-82
2021/12/10 01:35:24;;;;;;;9.10;8.80;;;2.30;99.90;;;;;;5184246;27;20260;-81
2021/12/10 01:38:01;;;;;;;8.80;8.60;;;2.30;99.90;;;;;;5184079;27;20236;-82
2021/12/10 01:40:30;;;;;;;8.80;8.60;;;2.30;99.90;;;;;;5185916;27;20376;-81
2021/12/10 01:43:06;;;;;;;9.03;8.73;;;2.30;99.90;;;;;;5184451;27;20243;-81
2021/12/10 01:45:45;;;;;;;9.17;8.87;;;2.30;99.90;;;;;;5184650;27;20230;-81
2021/12/10 01:48:18;;;;;;;8.93;8.67;;;2.30;99.90;;;;;;5187049;27;20230;-82
2021/12/10 01:50:47;;;;;;;8.57;8.37;;;2.30;99.90;;;;;;5193031;27;20239;-82
2021/12/10 01:53:18;;;;;;;9.03;8.73;;;2.20;99.90;;;;;;5187238;27;20226;-82
2021/12/10 01:55:49;;;;;;;8.90;8.70;;;2.20;99.90;;;;;;5186393;27;20226;-82
2021/12/10 01:58:24;;;;;;;9.13;8.83;;;2.20;99.90;;;;;;5186730;27;20284;-82
2021/12/10 02:00:58;;;;;;;8.80;8.60;;;2.20;99.90;;;;;;5185785;27;20309;-82
2021/12/10 02:03:26;;;;;;;9.07;8.77;;;2.20;99.90;;;;;;5186094;27;20235;-81
2021/12/10 02:05:55;;;;;;;8.80;8.60;;;2.20;99.90;;;;;;5180939;27;20231;-82
2021/12/10 02:08:22;;;;;;;9.00;8.70;;;2.20;99.90;;;;;;5170980;27;20233;-81
2021/12/10 02:10:50;;;;;;;8.90;8.60;;;2.20;99.90;;;;;;5170900;27;20230;-82
2021/12/10 02:13:20;;;;;;;8.80;8.60;;;2.20;99.90;;;;;;5170694;27;20231;-81
2021/12/10 02:15:48;;;;;;;8.80;8.60;;;2.20;99.90;;;;;;5169969;27;20220;-83
2021/12/10 02:18:16;;;;;;;8.63;8.43;;;2.20;99.90;;;;;;5175683;27;20234;-81
2021/12/10 02:20:54;;;;;;;8.70;8.50;;;2.10;99.90;;;;;;5174535;27;20230;-81
2021/12/10 02:23:23;;;;;;;8.63;8.43;;;2.10;99.90;;;;;;5172923;27;20223;-81
2021/12/10 02:25:51;;;;;;;8.97;8.70;;;2.10;99.90;;;;;;5171513;27;20284;-81
2021/12/10 02:28:19;;;;;;;9.10;8.80;;;2.10;99.90;;;;;;5167370;27;20242;-81
2021/12/10 02:30:48;;;;;;;9.10;8.80;;;2.10;99.90;;;;;;5177069;27;20231;-82
2021/12/10 02:33:17;;;;;;;9.00;8.70;;;2.10;99.90;;;;;;5176658;27;20227;-82
2021/12/10 02:35:45;;;;;;;8.97;8.67;;;2.10;99.90;;;;;;5172195;27;20231;-81
2021/12/10 02:38:17;;;;;;;8.87;8.60;;;2.10;99.90;;;;;;5170386;27;20249;-81
2021/12/10 02:40:46;;;;;;;8.90;8.63;;;2.10;99.90;;;;;;5171827;27;20241;-81
2021/12/10 02:43:17;;;;;;;9.00;8.70;;;2.10;99.90;;;;;;5174632;27;20219;-82
2021/12/10 02:45:49;;;;;;;8.83;8.63;;;2.10;99.90;;;;;;5176601;27;20222;-81
2021/12/10 02:48:17;;;;;;;9.23;8.93;;;2.10;99.90;;;;;;5168671;27;20261;-81
2021/12/10 02:50:46;;;;;;;8.73;8.53;;;2.10;99.90;;;;;;5165515;27;20253;-82
2021/12/10 02:53:22;;;;;;;8.70;8.50;;;2.10;99.90;;;;;;5163284;27;20227;-82
2021/12/10 02:55:50;;;;;;;8.70;8.50;;;2.10;99.90;;;;;;5163405;27;20263;-82
2021/12/10 02:58:20;;;;;;;9.10;8.80;;;2.10;99.90;;;;;;5165695;27;20227;-81
2021/12/10 03:00:53;;;;;;;8.43;8.23;;;2.10;99.90;;;;;;5166247;27;20234;-81
2021/12/10 03:03:21;;;;;;;8.70;8.50;;;2.10;99.90;;;;;;5166876;27;20217;-82
2021/12/10 03:05:50;;;;;;;8.97;8.70;;;2.20;99.90;;;;;;5166543;27;20230;-82
2021/12/10 03:08:19;;;;;;;8.50;8.30;;;2.10;99.90;;;;;;5167039;27;20231;-83
2021/12/10 03:10:48;;;;;;;8.80;8.60;;;2.10;99.90;;;;;;5168622;27;20253;-83
2021/12/10 03:13:16;;;;;;;8.60;8.40;;;2.10;99.90;;;;;;5173825;27;20232;-84
2021/12/10 03:15:45;;;;;;;8.90;8.70;;;2.10;99.90;;;;;;5173194;27;20281;-82
2021/12/10 03:18:15;;;;;;;8.80;8.60;;;2.10;99.90;;;;;;5169141;27;20223;-83
2021/12/10 03:20:44;;;;;;;8.97;8.67;;;2.10;99.90;;;;;;5168606;27;20296;-83
2021/12/10 03:23:12;;;;;;;8.80;8.60;;;2.10;99.90;;;;;;5170096;27;20259;-83
2021/12/10 03:25:42;;;;;;;9.30;9.00;;;2.10;99.90;;;;;;5167924;27;20328;-83
2021/12/10 03:28:11;;;;;;;8.80;8.60;;;2.10;99.90;;;;;;5168982;27;20242;-84
2021/12/10 03:30:48;;;;;;;9.00;8.70;;;2.10;99.90;;;;;;5168500;27;20286;-82
2021/12/10 03:33:17;;;;;;;8.70;8.50;;;2.10;99.90;;;;;;5162408;27;20238;-83
2021/12/10 03:35:50;;;;;;;9.03;8.73;;;2.10;99.90;;;;;;5164939;27;20244;-82
2021/12/10 03:38:21;;;;;;;9.17;8.87;;;2.10;99.90;;;;;;5165816;27;20231;-82
2021/12/10 03:40:51;;;;;;;9.20;8.90;;;2.10;99.90;;;;;;5166885;27;20227;-83
2021/12/10 03:43:20;;;;;;;8.70;8.50;;;2.10;99.90;;;;;;5165024;27;20219;-82
2021/12/10 03:45:54;;;;;;;8.70;8.50;;;2.10;99.90;;;;;;5165677;27;20224;-83
2021/12/10 03:48:28;;;;;;;8.70;8.50;;;2.10;99.90;;;;;;5165404;27;20279;-83
2021/12/10 03:50:57;;;;;;;8.80;8.60;;;2.00;99.90;;;;;;5166255;27;20238;-83
2021/12/10 03:53:25;;;;;;;8.97;8.70;;;2.00;99.90;;;;;;5167410;27;20227;-83
2021/12/10 03:56:00;;;;;;;8.63;8.43;;;2.00;99.90;;;;;;5168053;27;20227;-83
2021/12/10 03:58:29;;;;;;;8.73;8.53;;;2.00;99.90;;;;;;5168662;27;20231;-82
2021/12/10 04:00:58;;;;;;;8.70;8.50;;;1.90;99.90;;;;;;5168996;27;20280;-82
2021/12/10 04:03:30;;;;;;;8.77;8.57;;;1.90;99.90;;;;;;5172899;27;20329;-84
2021/12/10 04:05:58;;;;;;;8.67;8.47;;;1.90;99.90;;;;;;5171150;27;20280;-84
2021/12/10 04:08:26;;;;;;;8.53;8.33;;;1.90;99.90;;;;;;5166959;27;20674;-83
2021/12/10 04:10:57;;;;;;;8.37;8.17;;;1.80;99.90;;;;;;5167195;27;20234;-83
2021/12/10 04:13:27;;;;;;;8.30;8.10;;;1.80;99.90;;;;;;5168934;27;20294;-82
2021/12/10 04:15:55;;;;;;;8.30;8.10;;;1.80;99.90;;;;;;5141882;22;20225;-82
2021/12/10 04:18:23;;;;;;;8.50;8.30;;;1.70;99.90;;;;;;5112925;27;20228;-81
2021/12/10 04:20:51;;;;;;;8.50;8.30;;;1.70;99.90;;;;;;5107442;28;20315;-81
2021/12/10 04:23:21;;;;;;;8.60;8.40;;;1.70;99.90;;;;;;5098883;28;20229;-81
2021/12/10 04:25:49;;;;;;;8.37;8.17;;;1.70;99.90;;;;;;5099120;28;20233;-81
2021/12/10 04:28:21;;;;;;;8.70;8.50;;;1.60;99.90;;;;;;5098844;28;20237;-81
2021/12/10 04:30:51;;;;;;;8.43;8.23;;;1.70;99.90;;;;;;5098666;28;20236;-81
2021/12/10 04:33:22;;;;;;;8.07;7.87;;;1.70;99.90;;;;;;5098144;28;20236;-82
2021/12/10 04:35:53;;;;;;;8.20;8.00;;;1.70;99.90;;;;;;5098238;28;20272;-81
2021/12/10 04:38:22;;;;;;;8.73;8.53;;;1.70;99.90;;;;;;5099347;28;20391;-81
2021/12/10 04:40:53;;;;;;;8.63;8.43;;;1.70;99.90;;;;;;5099432;28;20256;-81
2021/12/10 04:43:23;;;;;;;8.50;8.30;;;1.60;99.90;;;;;;5102552;28;20236;-79
2021/12/10 04:45:55;;;;;;;8.07;7.87;;;1.60;99.90;;;;;;5098329;28;20260;-80
2021/12/10 04:48:25;;;;;;;8.20;8.00;;;1.60;99.90;;;;;;5096522;28;20252;-81
2021/12/10 04:50:53;;;;;;;8.27;8.07;;;1.60;99.90;;;;;;5098957;28;20236;-80
2021/12/10 04:53:22;;;;;;;8.27;8.07;;;1.60;99.90;;;;;;5099995;28;20233;-81
2021/12/10 04:55:50;;;;;;;7.97;7.77;;;1.60;99.90;;;;;;5098747;28;20237;-82
2021/12/10 04:58:18;;;;;;;8.63;8.43;;;1.60;99.90;;;;;;5099842;28;20280;-81
2021/12/10 05:00:52;;;;;;;8.47;8.27;;;1.60;99.90;;;;;;5099025;28;20236;-82
2021/12/10 05:03:20;;;;;;;8.23;8.03;;;1.60;99.90;;;;;;5098503;28;20233;-82
2021/12/10 05:05:48;;;;;;;8.33;8.13;;;1.60;99.90;;;;;;5100487;28;20237;-81
2021/12/10 05:08:16;;;;;;;7.93;7.73;;;1.60;99.90;;;;;;5101916;28;20255;-81
2021/12/10 05:10:44;;;;;;;8.20;8.00;;;1.60;99.90;;;;;;5101745;28;20229;-81
2021/12/10 05:13:12;;;;;;;8.00;7.80;;;1.50;99.90;;;;;;5101058;28;20232;-82
2021/12/10 05:15:40;;;;;;;8.17;7.97;;;1.50;99.90;;;;;;5101546;28;20235;-82
2021/12/10 05:18:13;;;;;;;8.30;8.10;;;1.50;99.90;;;;;;5101334;28;20242;-81
2021/12/10 05:20:48;;;;;;;8.20;8.00;;;1.50;99.90;;;;;;5122070;28;20249;-81
2021/12/10 05:23:16;;;;;;;8.43;8.23;;;1.50;99.90;;;;;;5116911;28;20225;-81
2021/12/10 05:25:45;;;;;;;8.60;8.40;;;1.50;99.90;;;;;;5117135;28;20271;-82
2021/12/10 05:28:13;;;;;;;8.40;8.20;;;1.50;99.90;;;;;;5118956;27;20209;-80
2021/12/10 05:30:42;;;;;;;8.40;8.20;;;1.40;99.90;;;;;;5119008;27;20277;-81
2021/12/10 05:33:16;;;;;;;8.37;8.17;;;1.40;99.90;;;;;;5118666;27;20240;-81
2021/12/10 05:35:45;;;;;;;8.50;8.30;;;1.40;99.90;;;;;;5114077;28;20249;-81
2021/12/10 05:38:13;;;;;;;8.77;8.57;;;1.40;99.90;;;;;;5116699;28;20214;-83
2021/12/10 05:40:41;;;;;;;8.70;8.50;;;1.40;99.90;;;;;;5115932;28;20237;-80
2021/12/10 05:43:09;;;;;;;8.33;8.13;;;1.40;99.90;;;;;;5108563;28;20224;-81
2021/12/10 05:45:37;;;;;;;8.30;8.10;;;1.30;99.90;;;;;;5108859;28;20241;-81
2021/12/10 05:48:05;;;;;;;8.57;8.37;;;1.30;99.90;;;;;;5109195;28;20248;-81
2021/12/10 05:50:36;;;;;;;8.30;8.10;;;1.30;99.90;;;;;;5109648;28;20233;-82
2021/12/10 05:53:06;;;;;;;8.40;8.20;;;1.30;99.90;;;;;;5108382;28;20222;-81
2021/12/10 05:55:36;;;;;;;8.53;8.33;;;1.30;99.90;;;;;;5108005;28;20230;-81
2021/12/10 05:58:04;;;;;;;8.40;8.20;;;1.20;99.90;;;;;;5105975;28;20264;-81
2021/12/10 06:00:35;;;;;;;8.20;8.00;;;1.20;99.90;;;;;;5105422;28;20233;-81
2021/12/10 06:03:03;;;;;;;8.40;8.20;;;1.10;99.90;;;;;;5104454;28;20236;-81
2021/12/10 06:05:34;;;;;;;8.40;8.20;;;1.10;99.90;;;;;;5103796;28;20245;-82
2021/12/10 06:08:02;;;;;;;8.43;8.23;;;1.00;99.90;;;;;;5104212;28;20237;-82
2021/12/10 06:10:30;;;;;;;8.53;8.33;;;1.00;99.90;;;;;;5103921;28;20275;-82
2021/12/10 06:12:58;;;;;;;8.53;8.33;;;1.00;99.90;;;;;;5103886;28;20229;-82
2021/12/10 06:15:27;;;;;;;8.70;8.50;;;0.90;99.90;;;;;;5103692;28;20252;-82
2021/12/10 06:17:56;;;;;;;8.47;8.27;;;0.90;99.90;;;;;;5103630;28;20229;-82
2021/12/10 06:20:27;;;;;;;8.63;8.43;;;0.90;99.90;;;;;;5104257;28;20232;-81
2021/12/10 06:22:59;;;;;;;8.60;8.40;;;0.80;99.90;;;;;;5103479;28;20252;-82
2021/12/10 06:25:28;;;;;;;8.50;8.30;;;0.80;99.90;;;;;;5109978;28;20232;-82
2021/12/10 06:27:56;;;;;;;8.30;8.10;;;0.80;99.90;;;;;;5103796;28;20236;-82
2021/12/10 06:30:29;;;;;;;8.50;8.30;;;0.70;99.90;;;;;;5108308;28;20240;-81
2021/12/10 06:32:58;;;;;;;8.47;8.27;;;0.70;99.90;;;;;;5107232;27;20256;-81
2021/12/10 06:35:29;;;;;;;8.30;8.10;;;0.70;99.90;;;;;;5104754;28;20240;-81
2021/12/10 06:38:00;;;;;;;8.80;8.60;;;0.70;99.90;;;;;;5103785;28;20237;-81
2021/12/10 06:40:33;;;;;;;9.10;8.80;;;0.70;99.90;;;;;;5104324;28;20233;-81
2021/12/10 06:43:01;;;;;;;9.50;9.20;;;0.60;99.90;;;;;;5104224;28;20236;-82
2021/12/10 06:45:30;;;;;;;9.50;9.20;;;0.60;99.90;;;;;;5103212;28;21006;-81
2021/12/10 06:48:01;;;;;;;9.40;9.10;;;0.60;99.90;;;;;;5103748;28;20228;-81
2021/12/10 06:50:33;;;;;;;9.70;9.40;;;0.60;99.90;;;;;;5103748;28;20320;-81
2021/12/10 06:53:03;;;;;;;9.60;9.30;;;0.60;99.90;;;;;;5104069;28;20213;-82
2021/12/10 06:55:33;;;;;;;9.60;9.30;;;0.60;99.90;;;;;;5105713;28;20229;-82
2021/12/10 06:58:01;;;;;;;10.30;10.00;;;0.60;99.90;;;;;;5116572;28;20383;-81
2021/12/10 07:00:36;;;;;;;9.93;9.63;;;0.50;99.90;;;;;;5117363;28;20256;-81
2021/12/10 07:03:05;;;;;;;9.87;9.57;;;0.60;99.90;;;;;;5117937;28;20225;-82
2021/12/10 07:05:33;;;;;;;9.70;9.40;;;0.60;99.90;;;;;;5118235;28;20244;-81
2021/12/10 07:08:04;;;;;;;9.83;9.53;;;0.70;99.90;;;;;;5118171;28;20264;-81
2021/12/10 07:10:32;;;;;;;9.80;9.50;;;0.60;99.90;;;;;;5115029;28;20279;-80
2021/12/10 07:13:03;;;;;;;10.20;9.90;;;0.60;99.90;;;;;;5115229;28;20252;-80
2021/12/10 07:15:31;;;;;;;10.10;9.80;;;0.60;99.90;;;;;;5114047;28;20212;-80
2021/12/10 07:17:59;;;;;;;10.27;9.97;;;0.60;99.90;;;;;;5101596;28;20233;-80
2021/12/10 07:20:27;;;;;;;9.93;9.63;;;0.60;99.90;;;;;;5098234;28;20241;-81
2021/12/10 07:22:55;;;;;;;10.00;9.70;;;0.50;99.90;;;;;;5097952;28;20259;-81
2021/12/10 07:25:24;;;;;;;9.80;9.50;;;0.50;99.90;;;;;;5098244;28;20239;-81
2021/12/10 07:27:53;;;;;;;9.83;9.53;;;0.40;99.90;;;;;;5100596;28;20242;-82
2021/12/10 07:30:25;;;;;;;9.83;9.53;;;0.40;99.90;;;;;;5097597;28;20250;-81
2021/12/10 07:32:54;;;;;;;9.80;9.50;;;0.50;99.90;;;;;;5097330;28;20355;-80
2021/12/10 07:35:22;;;;;;;9.83;9.53;;;0.50;99.90;;;;;;5095665;28;20724;-79
2021/12/10 07:37:50;;;;;;;9.70;9.40;;;0.40;99.90;;;;;;5095720;28;20237;-80
2021/12/10 07:40:24;;;;;;;9.80;9.50;;;0.40;99.90;;;;;;5117287;28;20225;-80
2021/12/10 07:42:52;;;;;;;9.80;9.50;;;0.40;99.90;;;;;;5116549;28;20235;-81
2021/12/10 07:45:22;;;;;;;9.73;9.43;;;0.40;99.90;;;;;;5110759;28;20233;-80
2021/12/10 07:47:52;;;;;;;9.73;9.43;;;0.40;99.90;;;;;;5098668;28;20255;-79
2021/12/10 07:50:25;;;;;;;8.90;8.60;;;0.40;99.90;;;;;;5102005;28;20267;-80
2021/12/10 07:52:55;;;;;;;9.03;8.73;;;0.40;99.90;;;;;;5099667;28;20229;-80
2021/12/10 07:55:27;;;;;;;8.90;8.60;;;0.30;99.90;;;;;;5096360;28;20287;-80
2021/12/10 07:57:55;;;;;;;8.67;8.47;;;0.30;99.90;;;;;;5095795;28;20233;-80
2021/12/10 08:00:27;;;;;;;9.27;8.97;;;0.40;99.90;;;;;;5096559;28;20222;-80
2021/12/10 08:02:55;;;;;;;9.03;8.73;;;0.40;99.90;;;;;;5095983;28;20291;-80
2021/12/10 08:05:23;;;;;;;8.80;8.60;;;0.40;99.90;;;;;;5096090;28;20284;-80
2021/12/10 08:07:55;;;;;;;9.70;9.40;;;0.40;99.90;;;;;;5099329;28;20233;-80
2021/12/10 08:10:25;;;;;;;9.43;9.13;;;0.40;99.90;;;;;;5109484;28;20240;-81
2021/12/10 08:13:50;;;;;;;9.63;9.33;;;0.50;99.90;;;;;;5118926;28;20233;-84
2021/12/10 08:16:23;;;;;;;9.40;9.10;;;0.50;99.90;;;;;;5110464;28;20237;-81
2021/12/10 08:18:51;;;;;;;9.70;9.40;;;0.60;99.90;;;;;;5102260;28;20240;-80
2021/12/10 08:21:19;;;;;;;9.77;9.47;;;0.60;99.90;;;;;;5107513;28;20236;-81
2021/12/10 08:23:47;;;;;;;10.07;9.77;;;0.50;99.90;;;;;;5099792;28;20218;-80
2021/12/10 08:26:17;;;;;;;9.80;9.50;;;0.50;99.90;;;;;;5101814;28;20316;-80
2021/12/10 08:28:45;;;;;;;10.20;9.90;;;0.50;99.90;;;;;;5106421;28;20244;-81
2021/12/10 08:31:16;;;;;;;9.93;9.63;;;0.50;99.90;;;;;;5112717;28;20522;-80
2021/12/10 08:33:48;;;;;;;9.97;9.67;;;0.40;99.90;;;;;;5111180;28;20293;-82
2021/12/10 08:36:20;;;;;;;9.87;9.57;;;0.40;99.90;;;;;;5121301;28;20232;-81
2021/12/10 08:38:49;;;;;;;9.93;9.63;;;0.50;99.90;;;;;;5101724;28;20232;-82
2021/12/10 08:41:27;;;;;;;9.90;9.60;;;0.50;99.90;;;;;;5098961;28;20236;-81
2021/12/10 08:43:56;;;;;;;9.77;9.47;;;0.50;99.90;;;;;;5101031;28;20297;-82
2021/12/10 08:46:25;;;;;;;9.77;9.47;;;0.50;99.90;;;;;;5118922;28;20328;-80
2021/12/10 08:48:53;;;;;;;9.87;9.57;;;0.60;99.90;;;;;;5116251;28;20231;-80
2021/12/10 08:51:26;;;;;;;9.60;9.30;;;0.60;99.90;;;;;;5097821;28;20313;-80
2021/12/10 08:53:54;;;;;;;9.67;9.37;;;0.60;99.90;;;;;;5097789;28;20241;-81
2021/12/10 08:56:23;;;;;;;9.47;9.17;;;0.70;99.90;;;;;;5097524;28;20235;-80
2021/12/10 08:58:52;;;;;;;9.70;9.40;;;0.70;99.90;;;;;;5097847;28;20244;-80
2021/12/10 09:01:25;;;;;;;9.70;9.40;;;0.80;99.90;;;;;;5097644;28;20279;-80
2021/12/10 09:03:57;;;;;;;9.63;9.33;;;0.80;99.90;;;;;;5096710;28;20232;-81
2021/12/10 09:06:30;;;;;;;10.10;9.80;;;0.90;99.90;;;;;;5098824;28;20237;-80
2021/12/10 09:08:59;;;;;;;10.03;9.73;;;0.90;99.90;;;;;;5098980;28;20237;-81
2021/12/10 09:11:29;;;;;;;9.93;9.63;;;1.00;99.90;;;;;;5097799;28;20232;-81
2021/12/10 09:13:57;;;;;;;10.00;9.70;;;1.10;99.90;;;;;;5097216;28;20236;-82
2021/12/10 09:16:29;;;;;;;10.03;9.73;;;1.20;99.90;;;;;;5106176;28;20243;-80
2021/12/10 09:19:03;;;;;;;9.90;9.60;;;1.30;99.90;;;;;;5100297;28;20236;-81
2021/12/10 09:21:32;;;;;;;9.57;9.27;;;1.40;99.90;;;;;;5100352;28;20257;-81
2021/12/10 09:24:04;;;;;;;9.80;9.50;;;1.50;99.90;;;;;;5101144;28;20566;-81
2021/12/10 09:26:36;;;;;;;9.80;9.50;;;1.50;99.90;;;;;;5101809;28;20256;-80
2021/12/10 09:29:07;;;;;;;9.97;9.67;;;1.60;99.90;;;;;;5102769;28;20291;-81
2021/12/10 09:31:38;;;;;;;9.80;9.50;;;1.60;99.90;;;;;;5103355;28;20229;-80
2021/12/10 09:34:08;;;;;;;9.70;9.40;;;1.70;99.90;;;;;;5110985;28;20221;-81
2021/12/10 09:36:36;;;;;;;9.83;9.53;;;1.80;99.90;;;;;;5123161;27;20201;-81
2021/12/10 09:39:06;;;;;;;9.83;9.53;;;1.90;99.90;;;;;;5123784;27;20265;-81
2021/12/10 09:41:36;;;;;;;9.80;9.50;;;2.00;99.90;;;;;;5123610;27;20220;-81
2021/12/10 09:44:07;;;;;;;9.60;9.30;;;2.20;99.90;;;;;;5123170;27;20217;-81
2021/12/10 09:46:36;;;;;;;9.60;9.30;;;2.40;99.90;;;;;;5123401;27;20202;-82
2021/12/10 09:49:05;;;;;;;9.37;9.07;;;2.60;99.90;;;;;;5123471;27;20209;-81
2021/12/10 09:51:39;;;;;;;9.70;9.40;;;2.80;99.90;;;;;;5122669;27;20209;-81
2021/12/10 09:54:11;;;;;;;9.27;8.97;;;3.00;99.90;;;;;;5121842;27;20256;-81
2021/12/10 09:56:46;;;;;;;9.10;8.80;;;3.00;99.90;;;;;;5118708;27;20236;-81
2021/12/10 09:59:14;;;;;;;9.00;8.80;;;3.10;99.90;;;;;;5107084;28;20294;-81
2021/12/10 10:01:47;;;;;;;9.30;9.00;;;3.00;99.90;;;;;;5104021;28;20232;-81
2021/12/10 10:04:18;;;;;;;8.77;8.57;;;3.10;99.90;;;;;;5104947;28;20229;-81
2021/12/10 10:06:51;;;;;;;8.80;8.60;;;3.20;99.90;;;;;;5107248;28;20226;-81
2021/12/10 10:09:21;;;;;;;8.57;8.37;;;3.40;99.90;;;;;;5104663;28;20233;-82
2021/12/10 10:11:55;;;;;;;8.87;8.67;;;3.50;99.90;;;;;;5104594;28;20320;-80
2021/12/10 10:14:23;;;;;;;8.70;8.50;;;3.50;99.90;;;;;;5137681;22;20294;31
2021/12/10 10:16:51;;;;;;;8.80;8.60;;;3.50;99.90;;;;;;5144619;27;20236;-84
2021/12/10 10:19:20;;;;;;;8.40;8.20;;;3.60;99.90;;;;;;5147613;27;20246;-84
2021/12/10 10:21:53;;;;;;;8.60;8.40;;;3.70;99.90;;;;;;5155597;27;20231;-84
2021/12/10 10:24:23;;;;;;;8.70;8.50;;;3.60;99.90;;;;;;5157128;27;20292;-84
2021/12/10 10:27:02;;;;;;;8.80;8.60;;;3.30;99.90;;;;;;5151096;27;20213;-84
2021/12/10 10:29:36;;;;;;;8.80;8.60;;;3.20;99.90;;;;;;5151028;27;20254;-83
2021/12/10 10:32:10;;;;;;;8.07;7.87;;;3.20;99.90;;;;;;5152435;27;20243;-84
2021/12/10 10:34:41;;;;;;;7.90;7.70;;;3.00;99.90;;;;;;5154541;27;20243;-84
2021/12/10 10:37:09;;;;;;;8.07;7.87;;;2.90;99.90;;;;;;5151456;27;20220;-84
2021/12/10 10:39:40;;;;;;;8.20;8.00;;;2.80;99.90;;;;;;5151607;27;20224;-84
2021/12/10 10:42:15;;;;;;;7.93;7.73;;;2.70;99.90;;;;;;5160907;27;20238;-83
2021/12/10 10:44:44;;;;;;;8.03;7.83;;;2.70;99.90;;;;;;5151501;27;20286;-85
2021/12/10 10:47:12;;;;;;;8.10;7.90;;;2.70;99.90;;;;;;5144953;27;20224;-85
2021/12/10 10:49:45;;;;;;;8.30;8.10;;;2.70;99.90;;;;;;5145819;27;20387;-84
2021/12/10 10:52:28;;;;;;;8.13;7.93;;;2.80;99.90;;;;;;5147506;27;20224;-85
2021/12/10 10:55:00;;;;;;;7.87;7.67;;;2.90;99.90;;;;;;5148325;27;20239;-84
2021/12/10 10:57:37;;;;;;;8.53;8.33;;;2.90;99.90;;;;;;5149077;27;20235;-84
2021/12/10 11:00:18;;;;;;;8.50;8.30;;;2.90;99.90;;;;;;5149328;27;20281;-84
2021/12/10 11:02:52;;;;;;;7.97;7.77;;;2.90;99.90;;;;;;5148062;27;20243;-84
2021/12/10 11:05:23;;;;;;;7.97;7.77;;;2.80;99.90;;;;;;5147874;27;20262;-84
2021/12/10 11:07:56;;;;;;;8.10;7.90;;;2.80;99.90;;;;;;5147210;27;20224;-84
2021/12/10 11:10:34;;;;;;;8.03;7.83;;;2.80;99.90;;;;;;5146932;27;20224;-85
2021/12/10 11:13:17;;;;;;;8.50;8.30;;;2.90;99.90;;;;;;5147299;27;20231;-84
2021/12/10 11:16:02;;;;;;;8.20;8.00;;;3.00;99.90;;;;;;5146918;27;20220;-85
2021/12/10 11:18:46;;;;;;;8.17;7.97;;;3.00;99.90;;;;;;5145672;27;20278;-84
2021/12/10 11:21:14;;;;;;;8.70;8.50;;;3.00;99.90;;;;;;5148265;27;20231;-85
2021/12/10 11:23:44;;;;;;;8.40;8.20;;;3.00;99.90;;;;;;5148518;27;20255;-85
2021/12/10 11:26:15;;;;;;;8.37;8.17;;;3.00;99.90;;;;;;5149225;27;20224;-84
2021/12/10 11:28:45;;;;;;;8.70;8.50;;;3.20;99.90;;;;;;5148774;27;20220;-84
2021/12/10 11:31:18;;;;;;;8.30;8.10;;;3.40;99.90;;;;;;5145402;27;20243;-84
2021/12/10 11:33:49;;;;;;;8.70;8.50;;;3.50;99.90;;;;;;5145095;27;20318;-84
2021/12/10 11:36:22;;;;;;;8.60;8.40;;;3.60;99.90;;;;;;5143957;27;20271;-84
2021/12/10 11:38:55;;;;;;;8.53;8.33;;;3.60;99.90;;;;;;5141007;27;20236;-84
2021/12/10 11:41:30;;;;;;;8.50;8.30;;;3.70;99.90;;;;;;5144110;27;20236;-85
2021/12/10 11:44:19;;;;;;;8.50;8.30;;;3.70;99.90;;;;;;5144156;27;20254;-85
2021/12/10 11:47:02;;;;;;;8.47;8.27;;;3.70;99.90;;;;;;5146569;27;20235;-84
2021/12/10 11:49:38;;;;;;;8.33;8.13;;;3.70;99.90;;;;;;5148209;27;20635;-84
2021/12/10 11:52:10;;;;;;;8.63;8.43;;;3.60;99.90;;;;;;5145140;27;20232;-84
2021/12/10 11:54:41;;;;;;;8.50;8.30;;;3.50;99.90;;;;;;5143457;27;20228;-84
2021/12/10 11:57:14;;;;;;;8.53;8.33;;;3.40;99.90;;;;;;5146039;27;20224;-84
2021/12/10 11:59:48;;;;;;;8.53;8.33;;;3.40;99.90;;;;;;5143787;27;20738;-83
2021/12/10 12:02:19;;;;;;;8.50;8.30;;;3.40;99.90;;;;;;5144316;27;20232;-83
2021/12/10 12:04:50;;;;;;;8.40;8.20;;;3.50;99.90;;;;;;5146684;27;20235;-83
2021/12/10 12:07:35;;;;;;;8.43;8.23;;;3.50;99.90;;;;;;5147284;27;20220;-83
2021/12/10 12:10:18;;;;;;;8.30;8.10;;;3.40;99.90;;;;;;5146485;27;20216;-83
2021/12/10 12:12:49;;;;;;;8.53;8.33;;;3.30;99.90;;;;;;5147952;27;20220;-84
2021/12/10 12:15:27;;;;;;;8.50;8.30;;;3.20;99.90;;;;;;5158954;27;20242;-83
2021/12/10 12:17:59;;;;;;;8.70;8.50;;;3.20;99.90;;;;;;5144972;27;20294;-83
2021/12/10 12:20:43;;;;;;;8.90;8.70;;;3.20;99.90;;;;;;5143768;27;20230;-84
2021/12/10 12:26:07;;;;;;;9.03;8.73;;;3.20;99.90;;;;;;5146925;27;20220;-84
2021/12/10 12:28:40;;;;;;;8.90;8.70;;;3.20;99.90;;;;;;5146459;27;20281;-85
2021/12/10 12:31:16;;;;;;;8.60;8.40;;;3.10;99.90;;;;;;5146447;27;20226;-84
2021/12/10 12:33:58;;;;;;;8.73;8.53;;;3.10;99.90;;;;;;5144729;27;20235;-84
2021/12/10 12:36:29;;;;;;;8.57;8.37;;;3.10;99.90;;;;;;5147644;27;20242;-84
2021/12/10 12:38:57;;;;;;;8.63;8.43;;;3.00;99.90;;;;;;5154758;27;20315;-84
2021/12/10 12:41:28;;;;;;;8.60;8.40;;;3.00;99.90;;;;;;5147039;27;20224;-84
2021/12/10 12:44:22;;;;;;;8.70;8.50;;;3.00;99.90;;;;;;5147543;27;20235;-84
2021/12/10 12:47:10;;;;;;;8.43;8.23;;;3.10;99.90;;;;;;5147216;27;20228;-84
2021/12/10 12:50:09;;;;;;;9.10;8.80;;;3.20;99.90;;;;;;5146011;27;20259;-84
2021/12/10 12:52:43;;;;;;;8.70;8.50;;;3.30;99.90;;;;;;5146709;27;20225;-84
2021/12/10 12:55:35;;;;;;;8.70;8.50;;;3.30;99.90;;;;;;5144660;27;20235;-85
2021/12/10 12:58:16;;;;;;;8.50;8.30;;;3.30;99.90;;;;;;5145218;27;20246;-84
2021/12/10 13:00:51;;;;;;;8.50;8.30;;;3.30;99.90;;;;;;5144380;27;20258;-84
2021/12/10 13:03:30;;;;;;;8.53;8.33;;;3.10;99.90;;;;;;5145536;27;20223;-85
2021/12/10 13:06:08;;;;;;;8.50;8.30;;;3.10;99.90;;;;;;5145383;27;20262;-84
2021/12/10 13:08:38;;;;;;;8.33;8.13;;;3.20;99.90;;;;;;5144894;27;20227;-85
2021/12/10 13:11:13;;;;;;;8.20;8.00;;;3.20;99.90;;;;;;5145526;27;20234;-84
2021/12/10 13:13:46;;;;;;;8.10;7.90;;;3.20;99.90;;;;;;5147787;27;20923;-81
2021/12/10 13:16:16;;;;;;;9.00;8.80;;;3.20;99.90;;;;;;5145993;27;20255;-84
2021/12/10 13:18:45;;;;;;;8.27;8.07;;;3.30;99.90;;;;;;5144428;27;20235;-84
2021/12/10 13:21:14;;;;;;;8.50;8.30;;;3.30;99.90;;;;;;5141737;27;20228;-85
2021/12/10 13:23:52;;;;;;;8.40;8.20;;;3.20;99.90;;;;;;5142669;27;20277;-83
2021/12/10 13:26:20;;;;;;;7.97;7.77;;;3.30;99.90;;;;;;5141714;27;20228;-83
2021/12/10 13:28:48;;;;;;;8.37;8.17;;;3.20;99.90;;;;;;5141220;27;20227;-82
2021/12/10 13:31:20;;;;;;;8.20;8.00;;;3.20;99.90;;;;;;5148537;27;20220;-83